Fort St John Airport
CYXJ : now visible

Airfield :











YOU CAN JOIN US ON...

 
LOGIN :

Register | Disclaimer

   EN    FR    IT 

 









Legend :    VFR   Marginal VFR   IFR   Intensive IFR   Very Intensive IFR
Visi :
Ceiling :
>= 8 km
>= 3000ft
5 to 8 km
1000 to 3000 ft
1500m to 5 km
500 to 1000 ft
800 to 1500m
200 to 500 ft
< 800m
< 200 ft
Symbols :   Thunderstorms  Fog  Heavy snow  Heavy precipitations  Wind > 20 kt






- Airport Elevation : 2280 ft
- IATA code : YXJ


CYXJ - Fort St John

CURRENT METAR :
  • 210200Z 19007KT 40SM BKN150 OVC230 13/05 A2977 RMK AC5CI3 230 SLP097 DENSITY ALT 2800FT

EXPIRED METARs :
  • 210100Z 22010KT 40SM BKN150 OVC230 14/05 A2978 RMK AC6CI2 230 SLP101 DENSITY ALT 2900FT
  • 210000Z 22006KT 15SM BKN130 OVC230 15/03 A2978 RMK AC5CI3 230 SLP099 DENSITY ALT 3000FT

TAF TAF CYXJ
Valid from the 21 at 01:00 until the 21 at 13:00 UTC


210043Z 2101/2113 22006KT P6SM SCT060 BKN120
FM210300 25012G22KT P6SM BKN060 OVC120
TEMPO 2103/2113 P6SM -SHRA RMK NXT FCST BY 210700Z
CZEG FIR / North America



MET'MAP, your aeronautical weather chart ! - Copyright ORBIFLY December 2007 - Disclaimer

ORBIFLY MET'MAP TEAM :

Programming & Development : Alexandra Zaïnal
Concept & original design : Baudouin d'Aumeries
Assistance for programming : Marc-Olivier Méhu
Technical & hardware support : Manuel Goepfert

Contact : metmap@orbifly.com




SOURCES & CREDITS :

   NOAA       Earth
Advisory